Dyrsten — WAK5769 — position and weather

sailwx.info

Track history (hours):
 
Tides and Currents Weather Stations Pressure Air Temp Water Temp Dewpoint Dewpoint Depression Visibility Wind Speed Wind Dir Waves Ship Positions

Dyrsten

Owner: H & L AXELSSON INC, CAPE MAY, NJ. More information available from US FCC via Universal Licensing System and Coast Guard Vessel Documentation Center.

Last reported at 2017-Nov-16 08:20 UTC. Time now 2017-Nov-20 15:23 UTC.
Position N 42°15' W 070°34'.

Length 52 m.

Type: Fishing. MMSI: 367016390.

Date/timePositionNaut miles runAvg speedWind from/ knotsBaromVisibWave heightAir tempDewpointWater temp
2017-Nov-16 08:20N 42°15' W 070°34'3 8.1
2017-Nov-16 08:00N 42°17' W 070°36'4 8.0
2017-Nov-16 07:30N 42°21' W 070°38'4 8.1
2017-Nov-16 07:00N 42°25' W 070°40'4 8.1
2017-Nov-16 06:30N 42°29' W 070°40'4 8.2
2017-Nov-16 06:00N 42°33' W 070°41'4 7.6
2017-Nov-16 05:30N 42°37' W 070°40'0 0.7
2017-Nov-16 04:56N 42°37' W 070°39'0 0.0
2017-Nov-16 04:29N 42°37' W 070°39'0 0.0
2017-Nov-16 03:59N 42°37' W 070°39'0 0.1
2017-Nov-16 03:30N 42°37' W 070°39'3 6.6
2017-Nov-16 03:00N 42°34' W 070°40'5 9.0
2017-Nov-16 02:30N 42°30' W 070°36'5 9.2
2017-Nov-16 02:00N 42°27' W 070°31'5 9.1
2017-Nov-16 01:30N 42°23' W 070°27'  
2017-Nov-11 13:20N 42°21' W 070°20'3 9.0
2017-Nov-11 12:59N 42°23' W 070°24'4 9.1
2017-Nov-11 12:30N 42°26' W 070°29'5 9.4
2017-Nov-11 12:00N 42°29' W 070°33'5 9.4
2017-Nov-11 11:30N 42°32' W 070°38'4 8.0
2017-Nov-11 11:00N 42°36' W 070°40'1 1.9
2017-Nov-11 10:15N 42°37' W 070°39'0 0.0
2017-Nov-11 10:00N 42°37' W 070°39'0 0.0
2017-Nov-11 09:30N 42°37' W 070°39'0 0.0
2017-Nov-11 08:57N 42°37' W 070°39'0 0.0
2017-Nov-11 08:15N 42°37' W 070°39'0 0.0
2017-Nov-11 07:57N 42°37' W 070°39'0 0.0
2017-Nov-11 07:09N 42°37' W 070°39'0 0.0
2017-Nov-11 07:00N 42°37' W 070°39'0 0.0
2017-Nov-11 06:27N 42°37' W 070°39'0 0.0
2017-Nov-11 05:57N 42°37' W 070°39'0 0.0
2017-Nov-11 05:21N 42°37' W 070°39'0 0.0
2017-Nov-11 04:45N 42°37' W 070°39'0 0.0
2017-Nov-11 04:27N 42°37' W 070°39'0 0.0
2017-Nov-11 03:51N 42°37' W 070°39'0 0.0
2017-Nov-11 03:27N 42°37' W 070°39'0 0.0
2017-Nov-11 02:54N 42°37' W 070°39'0 0.0
2017-Nov-11 02:15N 42°37' W 070°39'0 0.0
2017-Nov-11 02:00N 42°37' W 070°39'0 0.0
2017-Nov-10 22:15N 42°37' W 070°39'0 0.0
2017-Nov-10 21:57N 42°37' W 070°39'0 0.0
2017-Nov-10 21:27N 42°37' W 070°39'0 0.0
2017-Nov-10 20:54N 42°37' W 070°39'0 0.0
2017-Nov-10 20:24N 42°37' W 070°39'0 0.0
2017-Nov-10 20:00N 42°37' W 070°39'0 0.0
2017-Nov-10 19:24N 42°37' W 070°39'0 0.0
2017-Nov-10 18:51N 42°37' W 070°39'0 0.0
2017-Nov-10 18:30N 42°37' W 070°39'0 0.0
2017-Nov-10 18:00N 42°37' W 070°39'0 0.0
2017-Nov-10 17:30N 42°37' W 070°39'0 0.0
2017-Nov-10 16:54N 42°37' W 070°39'0 0.0
2017-Nov-10 16:24N 42°37' W 070°39'0 0.0
2017-Nov-10 15:57N 42°37' W 070°39'0 0.0
2017-Nov-10 15:27N 42°37' W 070°39'0 0.0
2017-Nov-10 14:57N 42°37' W 070°39'0 0.0
2017-Nov-10 14:27N 42°37' W 070°39'0 0.0
2017-Nov-10 14:00N 42°37' W 070°39'0 0.0
2017-Nov-10 13:21N 42°37' W 070°39'0 0.0
2017-Nov-10 13:00N 42°37' W 070°39'0 0.0
2017-Nov-10 12:27N 42°37' W 070°39'0 0.0
2017-Nov-10 11:57N 42°37' W 070°39'0 0.0
2017-Nov-10 11:30N 42°37' W 070°39'0 0.0
2017-Nov-10 10:57N 42°37' W 070°39'0 0.0
2017-Nov-10 10:21N 42°37' W 070°39'0 0.0
2017-Nov-10 10:00N 42°37' W 070°39'0 0.0
2017-Nov-10 09:27N 42°37' W 070°39'0 0.0
2017-Nov-10 08:57N 42°37' W 070°39'0 0.0
2017-Nov-10 08:27N 42°37' W 070°39'0 0.0
2017-Nov-10 07:57N 42°37' W 070°39'0 0.0
2017-Nov-10 07:30N 42°37' W 070°39'0 0.0
2017-Nov-10 06:57N 42°37' W 070°39'0 0.0
2017-Nov-10 06:21N 42°37' W 070°39'0 0.0
2017-Nov-10 05:48N 42°37' W 070°39'0 0.0
2017-Nov-10 05:27N 42°37' W 070°39'0 0.0
2017-Nov-10 04:45N 42°37' W 070°39'0 0.0
2017-Nov-10 04:24N 42°37' W 070°39'0 0.0
2017-Nov-10 03:57N 42°37' W 070°39'0 0.0
2017-Nov-10 03:21N 42°37' W 070°39'0 0.0
2017-Nov-10 02:51N 42°37' W 070°39'0 0.0
2017-Nov-10 02:30N 42°37' W 070°39'0 0.0
2017-Nov-10 02:00N 42°37' W 070°39'0 0.0
2017-Nov-10 01:27N 42°37' W 070°39'0 0.0
2017-Nov-10 00:54N 42°37' W 070°39'0 0.0
2017-Nov-10 00:30N 42°37' W 070°39'0 0.0
2017-Nov-09 23:54N 42°37' W 070°39'0 0.0
2017-Nov-09 23:27N 42°37' W 070°39'0 0.0
2017-Nov-09 22:57N 42°37' W 070°39'0 0.0
2017-Nov-09 22:24N 42°37' W 070°39'0 0.0
2017-Nov-09 21:51N 42°37' W 070°39'0 0.0
2017-Nov-09 21:24N 42°37' W 070°39'0 0.0
2017-Nov-09 21:00N 42°37' W 070°39'0 0.0
2017-Nov-09 20:27N 42°37' W 070°39'0 0.0
2017-Nov-09 19:57N 42°37' W 070°39'0 0.0
2017-Nov-09 19:24N 42°37' W 070°39'0 0.0
2017-Nov-09 19:00N 42°37' W 070°39'0 0.0
2017-Nov-09 18:24N 42°37' W 070°39'0 0.0
2017-Nov-09 17:57N 42°37' W 070°39'0 0.0
2017-Nov-09 17:30N 42°37' W 070°39'0 0.0
2017-Nov-09 16:57N 42°37' W 070°39'0 0.0
2017-Nov-09 16:30N 42°37' W 070°39'0 0.0
2017-Nov-09 16:00N 42°37' W 070°39'0 0.0
2017-Nov-09 15:30N 42°37' W 070°39'0 0.0
2017-Nov-09 14:57N 42°37' W 070°39'0 0.0
2017-Nov-09 14:30N 42°37' W 070°39'0 0.0
2017-Nov-09 13:54N 42°37' W 070°39'0 0.0
2017-Nov-09 13:24N 42°37' W 070°39'0 0.0
2017-Nov-09 13:00N 42°37' W 070°39'0 0.0
2017-Nov-09 12:27N 42°37' W 070°39'0 0.0
2017-Nov-09 12:00N 42°37' W 070°39'0 0.0
2017-Nov-09 11:30N 42°37' W 070°39'0 0.0
2017-Nov-09 11:00N 42°37' W 070°39'0 0.0
2017-Nov-09 10:30N 42°37' W 070°39'0 0.0
2017-Nov-09 09:45N 42°37' W 070°39'0 0.0
2017-Nov-09 09:27N 42°37' W 070°39'0 0.0
2017-Nov-09 08:57N 42°37' W 070°39'0 0.0
2017-Nov-09 08:27N 42°37' W 070°39'0 0.0
2017-Nov-09 07:57N 42°37' W 070°39'0 0.0
2017-Nov-09 07:27N 42°37' W 070°39'0 0.0
2017-Nov-09 07:00N 42°37' W 070°39'0 0.0
2017-Nov-09 06:24N 42°37' W 070°39'0 0.0
2017-Nov-09 05:57N 42°37' W 070°39'0 0.0
2017-Nov-09 05:15N 42°37' W 070°39'0 0.0
2017-Nov-09 05:00N 42°37' W 070°39'0 0.0
2017-Nov-09 04:24N 42°37' W 070°39'0 0.0
2017-Nov-09 03:57N 42°37' W 070°39'0 0.0
2017-Nov-09 03:30N 42°37' W 070°39'0 0.0
2017-Nov-09 02:54N 42°37' W 070°39'0 0.0
2017-Nov-09 02:27N 42°37' W 070°39'0 0.0
2017-Nov-09 01:57N 42°37' W 070°39'0 0.0
2017-Nov-09 01:27N 42°37' W 070°39'0 0.0
2017-Nov-09 00:51N 42°37' W 070°39'0 0.0
2017-Nov-09 00:30N 42°37' W 070°39'0 0.0
2017-Nov-08 23:57N 42°37' W 070°39'0 0.0
2017-Nov-08 23:30N 42°37' W 070°39'0 0.0
2017-Nov-08 22:57N 42°37' W 070°39'0 0.0
2017-Nov-08 22:27N 42°37' W 070°39'0 0.0
2017-Nov-08 22:00N 42°37' W 070°39'0 0.0
2017-Nov-08 21:24N 42°37' W 070°39'0 0.0
2017-Nov-08 20:57N 42°37' W 070°39'0 0.0
2017-Nov-08 20:18N 42°37' W 070°39'0 0.0
2017-Nov-08 20:00N 42°37' W 070°39'0 0.0
2017-Nov-08 19:30N 42°37' W 070°39'0 0.0
2017-Nov-08 18:57N 42°37' W 070°39'0 0.0
2017-Nov-08 18:21N 42°37' W 070°39'0 0.0
2017-Nov-08 17:57N 42°37' W 070°39'0 0.0
2017-Nov-08 17:30N 42°37' W 070°39'0 0.0
2017-Nov-08 16:57N 42°37' W 070°39'0 0.0
2017-Nov-08 16:24N 42°37' W 070°39'0 0.0
2017-Nov-08 16:00N 42°37' W 070°39'0 0.0
2017-Nov-08 15:30N 42°37' W 070°39'0 0.0
2017-Nov-08 15:00N 42°37' W 070°39'0 0.0
2017-Nov-08 14:24N 42°37' W 070°39'0 0.0
2017-Nov-08 13:57N 42°37' W 070°39'0 0.0
2017-Nov-08 13:27N 42°37' W 070°39'0 0.0
2017-Nov-08 13:00N 42°37' W 070°39'0 0.0
2017-Nov-08 12:24N 42°37' W 070°39'0 0.0
2017-Nov-08 11:57N 42°37' W 070°39'0 0.0
2017-Nov-08 11:27N 42°37' W 070°39'0 0.0
2017-Nov-08 11:00N 42°37' W 070°39'0 0.0
2017-Nov-08 10:21N 42°37' W 070°39'0 0.0
2017-Nov-08 09:57N 42°37' W 070°39'0 0.0
2017-Nov-08 09:27N 42°37' W 070°39'0 0.0
2017-Nov-08 08:54N 42°37' W 070°39'0 0.0
2017-Nov-08 08:18N 42°37' W 070°39'0 0.0
2017-Nov-08 07:42N 42°37' W 070°39'0 0.0
2017-Nov-08 07:30N 42°37' W 070°39'0 0.0
2017-Nov-08 06:48N 42°37' W 070°39'0 0.0
2017-Nov-08 06:21N 42°37' W 070°39'0 0.0
2017-Nov-08 05:54N 42°37' W 070°39'0 0.0
2017-Nov-08 05:30N 42°37' W 070°39'0 0.0
2017-Nov-08 04:57N 42°37' W 070°39'0 0.0
2017-Nov-08 04:27N 42°37' W 070°39'0 0.0
2017-Nov-08 04:00N 42°37' W 070°39'0 0.0
2017-Nov-08 03:30N 42°37' W 070°39'0 0.0
2017-Nov-08 03:00N 42°37' W 070°39'0 0.0
2017-Nov-08 02:27N 42°37' W 070°39'0 0.0
2017-Nov-08 02:00N 42°37' W 070°39'0 0.0
2017-Nov-08 01:27N 42°37' W 070°39'0 0.0
2017-Nov-08 00:57N 42°37' W 070°39'0 0.0
2017-Nov-08 00:27N 42°37' W 070°39'0 0.0
2017-Nov-08 00:00N 42°37' W 070°39'0 0.0
2017-Nov-07 22:33N 42°37' W 070°39'0 0.0
2017-Nov-07 22:21N 42°37' W 070°39'0 0.0
2017-Nov-07 21:57N 42°37' W 070°39'0 0.0
2017-Nov-07 21:24N 42°37' W 070°39'0 0.0
2017-Nov-07 20:57N 42°37' W 070°39'0 0.0
2017-Nov-07 20:15N 42°37' W 070°39'0 0.0
2017-Nov-07 19:39N 42°37' W 070°39'0 0.0
2017-Nov-07 19:30N 42°37' W 070°39'0 0.0
2017-Nov-07 18:57N 42°37' W 070°39'0 0.0
2017-Nov-07 18:24N 42°37' W 070°39'0 0.0
2017-Nov-07 17:48N 42°37' W 070°39'0 0.0
2017-Nov-07 17:30N 42°37' W 070°39'0 0.0
2017-Nov-07 17:00N 42°37' W 070°39'0 0.0
2017-Nov-07 16:27N 42°37' W 070°39'0 0.0
2017-Nov-07 15:57N 42°37' W 070°39'0 0.0
2017-Nov-07 15:24N 42°37' W 070°39'0 0.0
2017-Nov-07 14:57N 42°37' W 070°39'0 0.0
2017-Nov-07 14:21N 42°37' W 070°39'0 0.0
2017-Nov-07 13:57N 42°37' W 070°39'0 0.0
2017-Nov-07 13:27N 42°37' W 070°39'0 0.0
2017-Nov-07 12:57N 42°37' W 070°39'0 0.0
2017-Nov-07 12:27N 42°37' W 070°39'0 0.0
2017-Nov-07 12:00N 42°37' W 070°39'0 0.0
2017-Nov-07 11:21N 42°37' W 070°39'0 0.0
2017-Nov-07 10:36N 42°37' W 070°39'0 0.0
2017-Nov-07 10:27N 42°37' W 070°39'0 0.0
2017-Nov-07 09:57N 42°37' W 070°39'0 0.0
2017-Nov-07 09:27N 42°37' W 070°39'0 0.0
2017-Nov-07 08:57N 42°37' W 070°39'0 0.0
2017-Nov-07 08:21N 42°37' W 070°39'0 0.0
2017-Nov-07 07:57N 42°37' W 070°39'0 0.0
2017-Nov-07 07:27N 42°37' W 070°39'0 0.0
2017-Nov-07 06:51N 42°37' W 070°39'0 0.0
2017-Nov-07 06:24N 42°37' W 070°39'0 0.0
2017-Nov-07 05:57N 42°37' W 070°39'0 0.0
2017-Nov-07 05:27N 42°37' W 070°39'0 0.0
2017-Nov-07 05:00N 42°37' W 070°39'0 0.0
2017-Nov-07 04:30N 42°37' W 070°39'0 0.0
2017-Nov-07 03:57N 42°37' W 070°39'0 0.0
2017-Nov-07 03:27N 42°37' W 070°39'0 0.0
2017-Nov-07 02:57N 42°37' W 070°39'0 0.0
2017-Nov-07 02:27N 42°37' W 070°39'0 0.0
2017-Nov-07 02:00N 42°37' W 070°39'0 0.0
2017-Nov-07 01:27N 42°37' W 070°39'0 0.0
2017-Nov-07 00:57N 42°37' W 070°39'0 0.0
2017-Nov-07 00:27N 42°37' W 070°39'0 0.0
2017-Nov-06 23:57N 42°37' W 070°39'0 0.0
2017-Nov-06 23:27N 42°37' W 070°39'0 0.0
2017-Nov-06 22:51N 42°37' W 070°39'0 0.0
2017-Nov-06 22:27N 42°37' W 070°39'0 0.0
2017-Nov-06 21:57N 42°37' W 070°39'0 0.0
2017-Nov-06 21:30N 42°37' W 070°39'0 0.0
2017-Nov-06 21:00N 42°37' W 070°39'0 0.0
2017-Nov-06 20:30N 42°37' W 070°39'  
Track history (hours):
 
Tides and Currents Weather Stations Pressure Air Temp Water Temp Dewpoint Dewpoint Depression Visibility Wind Speed Wind Dir Waves Ship Positions

Dyrsten

Owner: H & L AXELSSON INC, CAPE MAY, NJ. More information available from US FCC via Universal Licensing System and Coast Guard Vessel Documentation Center.

Last reported at 2017-Nov-16 08:20 UTC. Time now 2017-Nov-20 15:23 UTC.
Position N 42°15' W 070°34'.

Length 52 m.

Type: Fishing. MMSI: 367016390.

Date/timePositionNaut miles runAvg speedWind from/ knotsBaromVisibWave heightAir tempDewpointWater temp
2017-Nov-16 08:20N 42°15' W 070°34'3 8.1
2017-Nov-16 08:00N 42°17' W 070°36'4 8.0
2017-Nov-16 07:30N 42°21' W 070°38'4 8.1
2017-Nov-16 07:00N 42°25' W 070°40'4 8.1
2017-Nov-16 06:30N 42°29' W 070°40'4 8.2
2017-Nov-16 06:00N 42°33' W 070°41'4 7.6
2017-Nov-16 05:30N 42°37' W 070°40'0 0.7
2017-Nov-16 04:56N 42°37' W 070°39'0 0.0
2017-Nov-16 04:29N 42°37' W 070°39'0 0.0
2017-Nov-16 03:59N 42°37' W 070°39'0 0.1
2017-Nov-16 03:30N 42°37' W 070°39'3 6.6
2017-Nov-16 03:00N 42°34' W 070°40'5 9.0
2017-Nov-16 02:30N 42°30' W 070°36'5 9.2
2017-Nov-16 02:00N 42°27' W 070°31'5 9.1
2017-Nov-16 01:30N 42°23' W 070°27'  
2017-Nov-11 13:20N 42°21' W 070°20'3 9.0
2017-Nov-11 12:59N 42°23' W 070°24'4 9.1
2017-Nov-11 12:30N 42°26' W 070°29'5 9.4
2017-Nov-11 12:00N 42°29' W 070°33'5 9.4
2017-Nov-11 11:30N 42°32' W 070°38'4 8.0
2017-Nov-11 11:00N 42°36' W 070°40'1 1.9
2017-Nov-11 10:15N 42°37' W 070°39'0 0.0
2017-Nov-11 10:00N 42°37' W 070°39'0 0.0
2017-Nov-11 09:30N 42°37' W 070°39'0 0.0
2017-Nov-11 08:57N 42°37' W 070°39'0 0.0
2017-Nov-11 08:15N 42°37' W 070°39'0 0.0
2017-Nov-11 07:57N 42°37' W 070°39'0 0.0
2017-Nov-11 07:09N 42°37' W 070°39'0 0.0
2017-Nov-11 07:00N 42°37' W 070°39'0 0.0
2017-Nov-11 06:27N 42°37' W 070°39'0 0.0
2017-Nov-11 05:57N 42°37' W 070°39'0 0.0
2017-Nov-11 05:21N 42°37' W 070°39'0 0.0
2017-Nov-11 04:45N 42°37' W 070°39'0 0.0
2017-Nov-11 04:27N 42°37' W 070°39'0 0.0
2017-Nov-11 03:51N 42°37' W 070°39'0 0.0
2017-Nov-11 03:27N 42°37' W 070°39'0 0.0
2017-Nov-11 02:54N 42°37' W 070°39'0 0.0
2017-Nov-11 02:15N 42°37' W 070°39'0 0.0
2017-Nov-11 02:00N 42°37' W 070°39'0 0.0
2017-Nov-10 22:15N 42°37' W 070°39'0 0.0
2017-Nov-10 21:57N 42°37' W 070°39'0 0.0
2017-Nov-10 21:27N 42°37' W 070°39'0 0.0
2017-Nov-10 20:54N 42°37' W 070°39'0 0.0
2017-Nov-10 20:24N 42°37' W 070°39'0 0.0
2017-Nov-10 20:00N 42°37' W 070°39'0 0.0
2017-Nov-10 19:24N 42°37' W 070°39'0 0.0
2017-Nov-10 18:51N 42°37' W 070°39'0 0.0
2017-Nov-10 18:30N 42°37' W 070°39'0 0.0
2017-Nov-10 18:00N 42°37' W 070°39'0 0.0
2017-Nov-10 17:30N 42°37' W 070°39'0 0.0
2017-Nov-10 16:54N 42°37' W 070°39'0 0.0
2017-Nov-10 16:24N 42°37' W 070°39'0 0.0
2017-Nov-10 15:57N 42°37' W 070°39'0 0.0
2017-Nov-10 15:27N 42°37' W 070°39'0 0.0
2017-Nov-10 14:57N 42°37' W 070°39'0 0.0
2017-Nov-10 14:27N 42°37' W 070°39'0 0.0
2017-Nov-10 14:00N 42°37' W 070°39'0 0.0
2017-Nov-10 13:21N 42°37' W 070°39'0 0.0
2017-Nov-10 13:00N 42°37' W 070°39'0 0.0
2017-Nov-10 12:27N 42°37' W 070°39'0 0.0
2017-Nov-10 11:57N 42°37' W 070°39'0 0.0
2017-Nov-10 11:30N 42°37' W 070°39'0 0.0
2017-Nov-10 10:57N 42°37' W 070°39'0 0.0
2017-Nov-10 10:21N 42°37' W 070°39'0 0.0
2017-Nov-10 10:00N 42°37' W 070°39'0 0.0
2017-Nov-10 09:27N 42°37' W 070°39'0 0.0
2017-Nov-10 08:57N 42°37' W 070°39'0 0.0
2017-Nov-10 08:27N 42°37' W 070°39'0 0.0
2017-Nov-10 07:57N 42°37' W 070°39'0 0.0
2017-Nov-10 07:30N 42°37' W 070°39'0 0.0
2017-Nov-10 06:57N 42°37' W 070°39'0 0.0
2017-Nov-10 06:21N 42°37' W 070°39'0 0.0
2017-Nov-10 05:48N 42°37' W 070°39'0 0.0
2017-Nov-10 05:27N 42°37' W 070°39'0 0.0
2017-Nov-10 04:45N 42°37' W 070°39'0 0.0
2017-Nov-10 04:24N 42°37' W 070°39'0 0.0
2017-Nov-10 03:57N 42°37' W 070°39'0 0.0
2017-Nov-10 03:21N 42°37' W 070°39'0 0.0
2017-Nov-10 02:51N 42°37' W 070°39'0 0.0
2017-Nov-10 02:30N 42°37' W 070°39'0 0.0
2017-Nov-10 02:00N 42°37' W 070°39'0 0.0
2017-Nov-10 01:27N 42°37' W 070°39'0 0.0
2017-Nov-10 00:54N 42°37' W 070°39'0 0.0
2017-Nov-10 00:30N 42°37' W 070°39'0 0.0
2017-Nov-09 23:54N 42°37' W 070°39'0 0.0
2017-Nov-09 23:27N 42°37' W 070°39'0 0.0
2017-Nov-09 22:57N 42°37' W 070°39'0 0.0
2017-Nov-09 22:24N 42°37' W 070°39'0 0.0
2017-Nov-09 21:51N 42°37' W 070°39'0 0.0
2017-Nov-09 21:24N 42°37' W 070°39'0 0.0
2017-Nov-09 21:00N 42°37' W 070°39'0 0.0
2017-Nov-09 20:27N 42°37' W 070°39'0 0.0
2017-Nov-09 19:57N 42°37' W 070°39'0 0.0
2017-Nov-09 19:24N 42°37' W 070°39'0 0.0
2017-Nov-09 19:00N 42°37' W 070°39'0 0.0
2017-Nov-09 18:24N 42°37' W 070°39'0 0.0
2017-Nov-09 17:57N 42°37' W 070°39'0 0.0
2017-Nov-09 17:30N 42°37' W 070°39'0 0.0
2017-Nov-09 16:57N 42°37' W 070°39'0 0.0
2017-Nov-09 16:30N 42°37' W 070°39'0 0.0
2017-Nov-09 16:00N 42°37' W 070°39'0 0.0
2017-Nov-09 15:30N 42°37' W 070°39'0 0.0
2017-Nov-09 14:57N 42°37' W 070°39'0 0.0
2017-Nov-09 14:30N 42°37' W 070°39'0 0.0
2017-Nov-09 13:54N 42°37' W 070°39'0 0.0
2017-Nov-09 13:24N 42°37' W 070°39'0 0.0
2017-Nov-09 13:00N 42°37' W 070°39'0 0.0
2017-Nov-09 12:27N 42°37' W 070°39'0 0.0
2017-Nov-09 12:00N 42°37' W 070°39'0 0.0
2017-Nov-09 11:30N 42°37' W 070°39'0 0.0
2017-Nov-09 11:00N 42°37' W 070°39'0 0.0
2017-Nov-09 10:30N 42°37' W 070°39'0 0.0
2017-Nov-09 09:45N 42°37' W 070°39'0 0.0
2017-Nov-09 09:27N 42°37' W 070°39'0 0.0
2017-Nov-09 08:57N 42°37' W 070°39'0 0.0
2017-Nov-09 08:27N 42°37' W 070°39'0 0.0
2017-Nov-09 07:57N 42°37' W 070°39'0 0.0
2017-Nov-09 07:27N 42°37' W 070°39'0 0.0
2017-Nov-09 07:00N 42°37' W 070°39'0 0.0
2017-Nov-09 06:24N 42°37' W 070°39'0 0.0
2017-Nov-09 05:57N 42°37' W 070°39'0 0.0
2017-Nov-09 05:15N 42°37' W 070°39'0 0.0
2017-Nov-09 05:00N 42°37' W 070°39'0 0.0
2017-Nov-09 04:24N 42°37' W 070°39'0 0.0
2017-Nov-09 03:57N 42°37' W 070°39'0 0.0
2017-Nov-09 03:30N 42°37' W 070°39'0 0.0
2017-Nov-09 02:54N 42°37' W 070°39'0 0.0
2017-Nov-09 02:27N 42°37' W 070°39'0 0.0
2017-Nov-09 01:57N 42°37' W 070°39'0 0.0
2017-Nov-09 01:27N 42°37' W 070°39'0 0.0
2017-Nov-09 00:51N 42°37' W 070°39'0 0.0
2017-Nov-09 00:30N 42°37' W 070°39'0 0.0
2017-Nov-08 23:57N 42°37' W 070°39'0 0.0
2017-Nov-08 23:30N 42°37' W 070°39'0 0.0
2017-Nov-08 22:57N 42°37' W 070°39'0 0.0
2017-Nov-08 22:27N 42°37' W 070°39'0 0.0
2017-Nov-08 22:00N 42°37' W 070°39'0 0.0
2017-Nov-08 21:24N 42°37' W 070°39'0 0.0
2017-Nov-08 20:57N 42°37' W 070°39'0 0.0
2017-Nov-08 20:18N 42°37' W 070°39'0 0.0
2017-Nov-08 20:00N 42°37' W 070°39'0 0.0
2017-Nov-08 19:30N 42°37' W 070°39'0 0.0
2017-Nov-08 18:57N 42°37' W 070°39'0 0.0
2017-Nov-08 18:21N 42°37' W 070°39'0 0.0
2017-Nov-08 17:57N 42°37' W 070°39'0 0.0
2017-Nov-08 17:30N 42°37' W 070°39'0 0.0
2017-Nov-08 16:57N 42°37' W 070°39'0 0.0
2017-Nov-08 16:24N 42°37' W 070°39'0 0.0
2017-Nov-08 16:00N 42°37' W 070°39'0 0.0
2017-Nov-08 15:30N 42°37' W 070°39'0 0.0
2017-Nov-08 15:00N 42°37' W 070°39'0 0.0
2017-Nov-08 14:24N 42°37' W 070°39'0 0.0
2017-Nov-08 13:57N 42°37' W 070°39'0 0.0
2017-Nov-08 13:27N 42°37' W 070°39'0 0.0
2017-Nov-08 13:00N 42°37' W 070°39'0 0.0
2017-Nov-08 12:24N 42°37' W 070°39'0 0.0
2017-Nov-08 11:57N 42°37' W 070°39'0 0.0
2017-Nov-08 11:27N 42°37' W 070°39'0 0.0
2017-Nov-08 11:00N 42°37' W 070°39'0 0.0
2017-Nov-08 10:21N 42°37' W 070°39'0 0.0
2017-Nov-08 09:57N 42°37' W 070°39'0 0.0
2017-Nov-08 09:27N 42°37' W 070°39'0 0.0
2017-Nov-08 08:54N 42°37' W 070°39'0 0.0
2017-Nov-08 08:18N 42°37' W 070°39'0 0.0
2017-Nov-08 07:42N 42°37' W 070°39'0 0.0
2017-Nov-08 07:30N 42°37' W 070°39'0 0.0
2017-Nov-08 06:48N 42°37' W 070°39'0 0.0
2017-Nov-08 06:21N 42°37' W 070°39'0 0.0
2017-Nov-08 05:54N 42°37' W 070°39'0 0.0
2017-Nov-08 05:30N 42°37' W 070°39'0 0.0
2017-Nov-08 04:57N 42°37' W 070°39'0 0.0
2017-Nov-08 04:27N 42°37' W 070°39'0 0.0
2017-Nov-08 04:00N 42°37' W 070°39'0 0.0
2017-Nov-08 03:30N 42°37' W 070°39'0 0.0
2017-Nov-08 03:00N 42°37' W 070°39'0 0.0
2017-Nov-08 02:27N 42°37' W 070°39'0 0.0
2017-Nov-08 02:00N 42°37' W 070°39'0 0.0
2017-Nov-08 01:27N 42°37' W 070°39'0 0.0
2017-Nov-08 00:57N 42°37' W 070°39'0 0.0
2017-Nov-08 00:27N 42°37' W 070°39'0 0.0
2017-Nov-08 00:00N 42°37' W 070°39'0 0.0
2017-Nov-07 22:33N 42°37' W 070°39'0 0.0
2017-Nov-07 22:21N 42°37' W 070°39'0 0.0
2017-Nov-07 21:57N 42°37' W 070°39'0 0.0
2017-Nov-07 21:24N 42°37' W 070°39'0 0.0
2017-Nov-07 20:57N 42°37' W 070°39'0 0.0
2017-Nov-07 20:15N 42°37' W 070°39'0 0.0
2017-Nov-07 19:39N 42°37' W 070°39'0 0.0
2017-Nov-07 19:30N 42°37' W 070°39'0 0.0
2017-Nov-07 18:57N 42°37' W 070°39'0 0.0
2017-Nov-07 18:24N 42°37' W 070°39'0 0.0
2017-Nov-07 17:48N 42°37' W 070°39'0 0.0
2017-Nov-07 17:30N 42°37' W 070°39'0 0.0
2017-Nov-07 17:00N 42°37' W 070°39'0 0.0
2017-Nov-07 16:27N 42°37' W 070°39'0 0.0
2017-Nov-07 15:57N 42°37' W 070°39'0 0.0
2017-Nov-07 15:24N 42°37' W 070°39'0 0.0
2017-Nov-07 14:57N 42°37' W 070°39'0 0.0
2017-Nov-07 14:21N 42°37' W 070°39'0 0.0
2017-Nov-07 13:57N 42°37' W 070°39'0 0.0
2017-Nov-07 13:27N 42°37' W 070°39'0 0.0
2017-Nov-07 12:57N 42°37' W 070°39'0 0.0
2017-Nov-07 12:27N 42°37' W 070°39'0 0.0
2017-Nov-07 12:00N 42°37' W 070°39'0 0.0
2017-Nov-07 11:21N 42°37' W 070°39'0 0.0
2017-Nov-07 10:36N 42°37' W 070°39'0 0.0
2017-Nov-07 10:27N 42°37' W 070°39'0 0.0
2017-Nov-07 09:57N 42°37' W 070°39'0 0.0
2017-Nov-07 09:27N 42°37' W 070°39'0 0.0
2017-Nov-07 08:57N 42°37' W 070°39'0 0.0
2017-Nov-07 08:21N 42°37' W 070°39'0 0.0
2017-Nov-07 07:57N 42°37' W 070°39'0 0.0
2017-Nov-07 07:27N 42°37' W 070°39'0 0.0
2017-Nov-07 06:51N 42°37' W 070°39'0 0.0
2017-Nov-07 06:24N 42°37' W 070°39'0 0.0
2017-Nov-07 05:57N 42°37' W 070°39'0 0.0
2017-Nov-07 05:27N 42°37' W 070°39'0 0.0
2017-Nov-07 05:00N 42°37' W 070°39'0 0.0
2017-Nov-07 04:30N 42°37' W 070°39'0 0.0
2017-Nov-07 03:57N 42°37' W 070°39'0 0.0
2017-Nov-07 03:27N 42°37' W 070°39'0 0.0
2017-Nov-07 02:57N 42°37' W 070°39'0 0.0
2017-Nov-07 02:27N 42°37' W 070°39'0 0.0
2017-Nov-07 02:00N 42°37' W 070°39'0 0.0
2017-Nov-07 01:27N 42°37' W 070°39'0 0.0
2017-Nov-07 00:57N 42°37' W 070°39'0 0.0
2017-Nov-07 00:27N 42°37' W 070°39'0 0.0
2017-Nov-06 23:57N 42°37' W 070°39'0 0.0
2017-Nov-06 23:27N 42°37' W 070°39'0 0.0
2017-Nov-06 22:51N 42°37' W 070°39'0 0.0
2017-Nov-06 22:27N 42°37' W 070°39'0 0.0
2017-Nov-06 21:57N 42°37' W 070°39'0 0.0
2017-Nov-06 21:30N 42°37' W 070°39'0 0.0
2017-Nov-06 21:00N 42°37' W 070°39'0 0.0
2017-Nov-06 20:30N 42°37' W 070°39'  

Dump ship's entire track history